createdAt,value
2022-11-14T00:01:13.456Z,57.62
2022-11-14T00:03:41.746Z,57.39
2022-11-14T00:06:09.319Z,57.65
2022-11-14T00:08:36.400Z,57.90
2022-11-14T00:11:03.949Z,57.95
2022-11-14T00:13:30.931Z,57.75
2022-11-14T00:15:57.921Z,57.93
2022-11-14T00:18:24.965Z,58.11
2022-11-14T00:20:53.986Z,57.86
2022-11-14T00:23:22.049Z,57.98
2022-11-14T00:25:49.649Z,57.92
2022-11-14T00:28:16.920Z,57.95
2022-11-14T00:30:47.996Z,57.91
2022-11-14T00:33:20.132Z,57.98
2022-11-14T00:35:54.532Z,57.89
2022-11-14T00:38:22.391Z,57.90
2022-11-14T00:40:49.338Z,57.82
2022-11-14T00:43:16.395Z,57.57
2022-11-14T00:45:44.726Z,57.22
2022-11-14T00:48:11.775Z,57.79
2022-11-14T00:50:38.810Z,57.66
2022-11-14T00:53:07.334Z,57.73
2022-11-14T00:55:34.288Z,57.75
2022-11-14T00:58:01.459Z,57.97
2022-11-14T01:00:28.582Z,57.78
2022-11-14T01:02:56.828Z,57.75
2022-11-14T01:05:24.626Z,57.71
2022-11-14T01:07:52.002Z,57.75
2022-11-14T01:10:21.045Z,57.81
2022-11-14T01:12:48.457Z,57.50
2022-11-14T01:15:15.468Z,57.52
2022-11-14T01:17:42.425Z,57.28
2022-11-14T01:20:09.882Z,57.24
2022-11-14T01:22:36.796Z,57.19
2022-11-14T01:25:04.372Z,57.10
2022-11-14T01:27:32.787Z,57.02
2022-11-14T01:29:59.760Z,56.91
2022-11-14T01:32:27.304Z,56.80
2022-11-14T01:34:54.547Z,56.63
2022-11-14T01:37:21.905Z,56.51
2022-11-14T01:39:48.967Z,56.68
2022-11-14T01:42:17.617Z,56.68
2022-11-14T01:44:49.143Z,56.76
2022-11-14T01:47:22.375Z,56.83
2022-11-14T01:49:54.606Z,56.39
2022-11-14T01:52:26.561Z,56.33
2022-11-14T01:54:58.708Z,56.45
2022-11-14T01:57:31.152Z,56.50
2022-11-14T02:00:06.067Z,56.34
2022-11-14T02:02:33.169Z,56.31
2022-11-14T02:05:06.722Z,56.21
2022-11-14T02:07:39.827Z,56.36
2022-11-14T02:10:11.295Z,56.17
2022-11-14T02:12:38.534Z,56.12
2022-11-14T02:15:09.958Z,55.98
2022-11-14T02:17:37.064Z,55.98
2022-11-14T02:20:19.017Z,56.18
2022-11-14T02:22:45.927Z,55.98
2022-11-14T02:25:18.502Z,56.03
2022-11-14T02:27:45.584Z,56.21
2022-11-14T02:30:18.333Z,56.14
2022-11-14T02:33:09.548Z,56.24
2022-11-14T02:35:33.928Z,56.08
2022-11-14T02:38:00.932Z,56.03
2022-11-14T02:40:27.853Z,55.80
2022-11-14T02:42:54.801Z,55.74
2022-11-14T02:45:21.867Z,55.90
2022-11-14T02:47:48.855Z,56.35
2022-11-14T02:50:16.610Z,56.81
2022-11-14T02:52:44.845Z,56.75
2022-11-14T02:55:12.520Z,56.91
2022-11-14T02:57:39.656Z,56.82
2022-11-14T03:00:14.370Z,57.47
2022-11-14T03:02:42.257Z,58.16
2022-11-14T03:05:09.799Z,58.38
2022-11-14T03:07:36.805Z,57.88
2022-11-14T03:10:06.939Z,57.82
2022-11-14T03:12:33.964Z,57.51
2022-11-14T03:15:00.948Z,57.54
2022-11-14T03:17:32.115Z,57.34
2022-11-14T03:19:59.137Z,57.07
2022-11-14T03:22:26.299Z,57.48
2022-11-14T03:24:53.609Z,57.80
2022-11-14T03:27:22.085Z,57.81
2022-11-14T03:29:49.307Z,57.60
2022-11-14T03:32:16.559Z,57.23
2022-11-14T03:34:43.497Z,57.37
2022-11-14T03:37:10.943Z,57.33
2022-11-14T03:39:37.865Z,56.96
2022-11-14T03:42:05.070Z,57.02
2022-11-14T03:44:33.332Z,57.26
2022-11-14T03:47:00.311Z,57.55
2022-11-14T03:49:27.400Z,57.75
2022-11-14T03:51:54.329Z,57.36
2022-11-14T03:54:21.312Z,57.73
2022-11-14T03:56:48.388Z,57.64
2022-11-14T03:59:15.319Z,57.79
2022-11-14T04:01:43.582Z,58.23
2022-11-14T04:04:12.381Z,57.73
2022-11-14T04:06:39.314Z,57.65
2022-11-14T04:09:06.586Z,57.28
2022-11-14T04:11:33.535Z,56.90
2022-11-14T04:14:00.512Z,57.06
2022-11-14T04:16:27.549Z,56.96
2022-11-14T04:18:55.834Z,57.29
2022-11-14T04:21:22.745Z,57.42
2022-11-14T04:23:49.766Z,57.49
2022-11-14T04:26:16.706Z,57.64
2022-11-14T04:28:43.756Z,58.03
2022-11-14T04:31:10.856Z,57.78
2022-11-14T04:33:37.810Z,58.26
2022-11-14T04:36:07.228Z,58.83
2022-11-14T04:38:34.170Z,58.49
2022-11-14T04:41:01.110Z,58.56
2022-11-14T04:43:28.075Z,58.44
2022-11-14T04:45:54.999Z,58.71
2022-11-14T04:48:22.007Z,58.54
2022-11-14T04:50:48.923Z,58.57
2022-11-14T04:53:17.287Z,58.67
2022-11-14T04:55:45.597Z,58.69
2022-11-14T04:58:12.563Z,58.73
2022-11-14T05:00:39.831Z,58.85
2022-11-14T05:03:06.734Z,59.04
2022-11-14T05:05:35.957Z,59.23
2022-11-14T05:08:06.324Z,59.25
2022-11-14T05:10:34.693Z,58.75
2022-11-14T05:13:02.310Z,58.56
2022-11-14T05:15:29.287Z,57.91
2022-11-14T05:17:57.723Z,57.92
2022-11-14T05:20:24.734Z,57.71
2022-11-14T05:22:54.289Z,57.67
2022-11-14T05:25:21.855Z,57.61
2022-11-14T05:27:50.199Z,57.49
2022-11-14T05:30:17.880Z,57.93
2022-11-14T05:32:45.019Z,57.64
2022-11-14T05:35:12.137Z,57.78
2022-11-14T05:37:39.229Z,57.96
2022-11-14T05:40:07.174Z,58.21
2022-11-14T05:42:34.125Z,57.90
2022-11-14T05:45:02.496Z,57.75
2022-11-14T05:47:29.454Z,57.33
2022-11-14T05:49:56.428Z,57.54
2022-11-14T05:52:23.356Z,57.23
2022-11-14T05:54:50.323Z,57.02
2022-11-14T05:57:17.297Z,57.54
2022-11-14T05:59:44.306Z,57.44
2022-11-14T06:02:12.642Z,57.21
2022-11-14T06:04:39.664Z,56.96
2022-11-14T06:07:06.769Z,56.94
2022-11-14T06:09:33.721Z,56.78
2022-11-14T06:12:00.659Z,57.15
2022-11-14T06:14:27.566Z,58.05
2022-11-14T06:16:54.504Z,58.20
2022-11-14T06:19:22.778Z,58.33
2022-11-14T06:21:49.781Z,58.13
2022-11-14T06:24:16.999Z,57.98
2022-11-14T06:26:43.992Z,58.02
2022-11-14T06:29:11.480Z,58.01
2022-11-14T06:31:38.469Z,58.16
2022-11-14T06:34:06.159Z,57.89
2022-11-14T06:36:34.490Z,57.80
2022-11-14T06:39:01.450Z,58.26
2022-11-14T06:41:28.435Z,58.67
2022-11-14T06:43:55.480Z,58.95
2022-11-14T06:46:23.681Z,58.87
2022-11-14T06:48:52.435Z,59.27
2022-11-14T06:51:19.745Z,59.91
2022-11-14T06:53:48.076Z,59.78
2022-11-14T06:56:17.588Z,60.12
2022-11-14T06:58:47.551Z,60.39
2022-11-14T07:01:17.606Z,60.27
2022-11-14T07:03:45.962Z,60.40
2022-11-14T07:06:15.978Z,60.32
2022-11-14T07:08:43.047Z,59.94
2022-11-14T07:11:22.587Z,59.26
2022-11-14T07:13:49.766Z,59.84
2022-11-14T07:16:17.146Z,59.64
2022-11-14T07:18:44.649Z,60.57
2022-11-14T07:21:13.317Z,60.37
2022-11-14T07:23:48.229Z,60.08
2022-11-14T07:26:20.475Z,60.48
2022-11-14T07:28:53.620Z,60.21
2022-11-14T07:31:25.130Z,60.44
2022-11-14T07:33:52.216Z,60.67
2022-11-14T07:36:19.323Z,60.57
2022-11-14T07:38:47.353Z,60.31
2022-11-14T07:41:17.396Z,59.92
2022-11-14T07:43:45.060Z,59.96
2022-11-14T07:46:15.502Z,59.70
2022-11-14T07:48:43.523Z,59.69
2022-11-14T07:51:18.518Z,59.31
2022-11-14T07:53:46.188Z,59.17
2022-11-14T07:56:13.552Z,58.98
2022-11-14T07:58:42.294Z,58.52
2022-11-14T08:01:13.024Z,58.53
2022-11-14T08:03:45.594Z,58.33
2022-11-14T08:06:15.656Z,57.88
2022-11-14T08:08:42.925Z,57.81
2022-11-14T08:11:10.443Z,57.75
2022-11-14T08:13:37.718Z,57.72
2022-11-14T08:16:13.254Z,58.31
2022-11-14T08:18:41.388Z,58.46
2022-11-14T08:21:08.738Z,58.24
2022-11-14T08:23:35.965Z,58.62
2022-11-14T08:26:03.232Z,58.48
2022-11-14T08:28:30.551Z,58.17
2022-11-14T08:31:00.461Z,58.16
2022-11-14T08:33:29.210Z,58.23
2022-11-14T08:35:56.159Z,58.86
2022-11-14T08:38:23.176Z,58.46
2022-11-14T08:40:50.122Z,58.32
2022-11-14T08:43:17.057Z,58.21
2022-11-14T08:45:44.208Z,57.74
2022-11-14T08:48:14.354Z,58.07
2022-11-14T08:50:45.819Z,58.06
2022-11-14T08:53:12.786Z,57.81
2022-11-14T08:55:44.183Z,58.07
2022-11-14T08:58:11.592Z,57.63
2022-11-14T09:00:38.579Z,57.92
2022-11-14T09:03:08.276Z,57.48
2022-11-14T09:05:38.604Z,57.54
2022-11-14T09:08:07.710Z,57.48
2022-11-14T09:10:35.140Z,57.80
2022-11-14T09:13:02.770Z,58.28
2022-11-14T09:15:30.647Z,57.95
2022-11-14T09:17:58.167Z,58.43
2022-11-14T09:20:31.670Z,57.86
2022-11-14T09:23:01.373Z,58.45
2022-11-14T09:25:30.700Z,58.30
2022-11-14T09:27:58.718Z,58.25
2022-11-14T09:30:25.831Z,58.54
2022-11-14T09:32:52.786Z,58.24
2022-11-14T09:35:19.884Z,58.16
2022-11-14T09:37:46.854Z,58.72
2022-11-14T09:40:14.372Z,58.77
2022-11-14T09:43:17.883Z,58.36
2022-11-14T09:45:52.441Z,58.64
2022-11-14T09:48:25.826Z,58.36
2022-11-14T09:51:07.066Z,57.90
2022-11-14T09:53:40.676Z,57.29
2022-11-14T09:56:12.863Z,57.32
2022-11-14T09:58:42.828Z,57.56
2022-11-14T10:01:17.793Z,57.36
2022-11-14T10:03:58.454Z,57.39
2022-11-14T10:06:33.482Z,57.40
2022-11-14T10:09:30.188Z,57.72
2022-11-14T10:12:13.166Z,57.31
2022-11-14T10:15:10.326Z,57.38
2022-11-14T10:18:07.122Z,57.98
2022-11-14T10:20:44.870Z,58.23
2022-11-14T10:23:40.219Z,58.86
2022-11-14T10:26:15.480Z,58.63
2022-11-14T10:29:06.521Z,58.07
2022-11-14T10:31:51.969Z,58.38
2022-11-14T10:34:34.210Z,58.04
2022-11-14T10:37:17.080Z,58.05
2022-11-14T10:39:53.184Z,58.12
2022-11-14T10:42:29.845Z,57.78
2022-11-14T10:45:04.310Z,58.27
2022-11-14T10:47:40.893Z,58.34
2022-11-14T10:50:19.523Z,57.91
2022-11-14T10:52:52.375Z,58.30
2022-11-14T10:55:24.864Z,57.80
2022-11-14T10:58:11.005Z,57.57
2022-11-14T11:00:38.019Z,57.43
2022-11-14T11:03:07.509Z,57.24
2022-11-14T11:05:50.683Z,57.14
2022-11-14T11:08:43.588Z,57.02
2022-11-14T11:11:36.148Z,57.07
2022-11-14T11:14:03.632Z,56.89
2022-11-14T11:16:30.677Z,56.90
2022-11-14T11:19:21.340Z,56.81
2022-11-14T11:21:51.804Z,56.48
2022-11-14T11:24:33.130Z,55.77
2022-11-14T11:27:23.666Z,55.28
2022-11-14T11:30:10.203Z,55.06
2022-11-14T11:32:37.261Z,55.09
2022-11-14T11:35:13.588Z,55.30
2022-11-14T11:37:46.575Z,56.06
2022-11-14T11:40:20.315Z,56.08
2022-11-14T11:45:49.745Z,56.44
2022-11-14T11:48:20.306Z,56.18
2022-11-14T11:50:50.301Z,55.80
2022-11-14T11:53:24.390Z,55.27
2022-11-14T11:55:56.463Z,54.94
2022-11-14T11:58:29.503Z,55.09
2022-11-14T12:00:56.561Z,54.79
2022-11-14T12:03:27.424Z,54.05
2022-11-14T12:06:13.881Z,54.06
2022-11-14T12:08:58.230Z,54.58
2022-11-14T12:11:30.226Z,54.85
2022-11-14T12:14:39.417Z,54.89
2022-11-14T12:18:16.989Z,54.44
2022-11-14T12:21:10.166Z,54.79
2022-11-14T12:24:22.940Z,55.07
2022-11-14T12:27:17.558Z,55.31
2022-11-14T12:30:11.840Z,55.39
2022-11-14T12:32:44.838Z,55.19
2022-11-14T12:35:21.433Z,55.23
2022-11-14T12:37:55.986Z,55.08
2022-11-14T12:40:35.846Z,54.92
2022-11-14T12:43:06.738Z,54.70
2022-11-14T12:45:57.947Z,54.42
2022-11-14T12:48:33.659Z,54.83
2022-11-14T12:51:03.658Z,55.16
2022-11-14T12:53:45.113Z,55.27
2022-11-14T12:57:00.090Z,54.94
2022-11-14T12:59:40.086Z,55.06
2022-11-14T13:02:56.276Z,55.10
2022-11-14T13:05:47.383Z,55.48
2022-11-14T13:08:50.934Z,55.84
2022-11-14T13:12:03.101Z,55.62
2022-11-14T13:14:49.875Z,55.90
2022-11-14T13:17:44.943Z,55.87
2022-11-14T13:20:47.588Z,55.39
2022-11-14T13:23:56.655Z,56.29
2022-11-14T13:26:54.789Z,56.36
2022-11-14T13:29:54.251Z,56.55
2022-11-14T13:33:01.106Z,56.40
2022-11-14T13:35:51.349Z,56.03
2022-11-14T13:39:01.539Z,56.05
2022-11-14T13:42:06.090Z,56.04
2022-11-14T13:45:18.952Z,55.98
2022-11-14T13:48:19.733Z,55.96
2022-11-14T13:50:52.223Z,56.17
2022-11-14T13:53:24.495Z,55.85
2022-11-14T13:56:16.102Z,56.10
2022-11-14T13:59:14.144Z,56.24
2022-11-14T14:02:06.706Z,56.04
2022-11-14T14:04:53.272Z,55.91
2022-11-14T14:07:39.986Z,55.83
2022-11-14T14:10:24.261Z,55.64
2022-11-14T14:13:14.264Z,55.56
2022-11-14T14:15:50.173Z,55.81
2022-11-14T14:18:35.121Z,56.09
2022-11-14T14:21:17.746Z,55.86
2022-11-14T14:23:58.426Z,55.64
2022-11-14T14:26:38.072Z,55.57
2022-11-14T14:29:25.198Z,55.53
2022-11-14T14:31:52.610Z,55.69
2022-11-14T14:34:23.963Z,55.56
2022-11-14T14:36:54.179Z,55.40
2022-11-14T14:39:27.245Z,55.43
2022-11-14T14:41:58.166Z,55.24
2022-11-14T14:44:34.203Z,55.28
2022-11-14T14:47:16.575Z,55.18
2022-11-14T14:49:44.887Z,55.42
2022-11-14T14:52:28.044Z,55.19
2022-11-14T14:54:56.851Z,55.28
2022-11-14T14:57:24.311Z,55.36
2022-11-14T15:00:01.387Z,55.24
2022-11-14T15:02:29.894Z,55.29
2022-11-14T15:04:59.842Z,55.08
2022-11-14T15:07:30.481Z,55.00
2022-11-14T15:10:01.398Z,55.07
2022-11-14T15:12:32.193Z,55.02
2022-11-14T15:15:03.237Z,55.14
2022-11-14T15:17:35.666Z,55.35
2022-11-14T15:20:03.733Z,55.24
2022-11-14T15:22:30.899Z,55.34
2022-11-14T15:25:20.205Z,55.09
2022-11-14T15:27:53.259Z,55.37
2022-11-14T15:30:26.095Z,55.19
2022-11-14T15:32:55.794Z,55.39
2022-11-14T15:35:31.053Z,54.99
2022-11-14T15:41:20.758Z,54.83
2022-11-14T15:43:52.913Z,54.92
2022-11-14T15:46:46.192Z,54.86
2022-11-14T15:49:25.360Z,54.82
2022-11-14T15:51:58.433Z,54.80
2022-11-14T15:54:29.266Z,54.79
2022-11-14T15:56:59.653Z,54.85
2022-11-14T15:59:30.112Z,54.95
2022-11-14T16:02:04.313Z,54.68
2022-11-14T16:04:35.614Z,54.78
2022-11-14T16:07:02.822Z,54.77
2022-11-14T16:09:30.174Z,54.86
2022-11-14T16:11:57.401Z,54.90
2022-11-14T16:14:24.489Z,54.77
2022-11-14T16:16:51.433Z,54.88
2022-11-14T16:19:21.796Z,54.73
2022-11-14T16:21:49.080Z,54.82
2022-11-14T16:24:18.716Z,54.76
2022-11-14T16:26:46.562Z,54.87
2022-11-14T16:29:13.966Z,54.89
2022-11-14T16:31:41.630Z,54.88
2022-11-14T16:34:19.949Z,54.76
2022-11-14T16:36:48.756Z,55.10
2022-11-14T16:39:16.514Z,55.02
2022-11-14T16:41:43.940Z,54.93
2022-11-14T16:44:16.670Z,55.15
2022-11-14T16:46:44.754Z,55.14
2022-11-14T16:49:15.142Z,54.92
2022-11-14T16:51:48.149Z,54.97
2022-11-14T16:54:19.570Z,55.13
2022-11-14T16:56:47.954Z,55.08
2022-11-14T16:59:15.351Z,55.26
2022-11-14T17:01:43.368Z,55.58
2022-11-14T17:04:11.002Z,55.31
2022-11-14T17:06:38.406Z,55.26
2022-11-14T17:09:05.481Z,55.09
2022-11-14T17:11:33.958Z,55.16
2022-11-14T17:14:01.135Z,55.21
2022-11-14T17:16:28.248Z,55.36
2022-11-14T17:18:56.165Z,55.46
2022-11-14T17:21:24.527Z,55.32
2022-11-14T17:23:55.574Z,55.51
2022-11-14T17:26:23.389Z,55.64
2022-11-14T17:28:51.774Z,55.68
2022-11-14T17:31:19.209Z,55.44
2022-11-14T17:33:51.609Z,55.30
2022-11-14T17:36:18.991Z,55.62
2022-11-14T17:38:46.080Z,55.46
2022-11-14T17:41:13.165Z,55.72
2022-11-14T17:43:40.816Z,55.71
2022-11-14T17:46:15.873Z,55.83
2022-11-14T17:48:43.671Z,55.91
2022-11-14T17:51:13.817Z,56.48
2022-11-14T17:53:42.337Z,56.87
2022-11-14T17:56:13.511Z,56.68
2022-11-14T17:58:40.846Z,57.00
2022-11-14T18:01:14.942Z,56.82
2022-11-14T18:03:42.333Z,56.85
2022-11-14T18:06:12.410Z,57.01
2022-11-14T18:08:41.187Z,56.89
2022-11-14T18:11:12.091Z,56.86
2022-11-14T18:13:40.250Z,56.98
2022-11-14T18:16:13.040Z,56.85
2022-11-14T18:18:40.902Z,56.87
2022-11-14T18:21:10.192Z,56.71
2022-11-14T18:23:38.595Z,56.92
2022-11-14T18:26:11.108Z,57.05
2022-11-14T18:28:38.652Z,57.18
2022-11-14T18:31:07.379Z,57.23
2022-11-14T18:33:36.367Z,57.71
2022-11-14T18:36:08.234Z,57.76
2022-11-14T18:38:35.862Z,57.81
2022-11-14T18:41:08.271Z,58.00
2022-11-14T18:43:36.327Z,58.09
2022-11-14T18:46:10.902Z,58.13
2022-11-14T18:48:42.434Z,58.17
2022-11-14T18:51:14.385Z,58.29
2022-11-14T18:53:41.844Z,58.11
2022-11-14T18:56:11.819Z,58.33
2022-11-14T18:58:40.685Z,58.40
2022-11-14T19:01:13.632Z,58.07
2022-11-14T19:03:42.806Z,58.15
2022-11-14T19:06:12.514Z,58.16
2022-11-14T19:08:40.820Z,58.39
2022-11-14T19:11:30.171Z,58.22
2022-11-14T19:14:00.450Z,58.27
2022-11-14T19:16:29.386Z,58.36
2022-11-14T19:18:59.263Z,58.13
2022-11-14T19:21:28.114Z,58.25
2022-11-14T19:23:55.775Z,58.32
2022-11-14T19:26:25.495Z,58.07
2022-11-14T19:28:53.504Z,58.23
2022-11-14T19:31:22.840Z,58.72
2022-11-14T19:33:50.200Z,58.62
2022-11-14T19:36:45.327Z,58.40
2022-11-14T19:39:10.015Z,58.72
2022-11-14T19:41:37.302Z,58.59
2022-11-14T19:44:05.248Z,58.27
2022-11-14T19:46:32.506Z,58.52
2022-11-14T19:49:01.331Z,58.46
2022-11-14T19:51:32.741Z,58.48
2022-11-14T19:54:01.776Z,58.00
2022-11-14T19:56:29.034Z,58.13
2022-11-14T19:58:57.193Z,58.21
2022-11-14T20:01:26.603Z,57.76
2022-11-14T20:03:56.509Z,57.83
2022-11-14T20:06:27.272Z,58.06
2022-11-14T20:08:57.259Z,57.98
2022-11-14T20:11:28.277Z,57.89
2022-11-14T20:13:57.707Z,57.65
2022-11-14T20:16:28.532Z,57.85
2022-11-14T20:18:59.216Z,57.74
2022-11-14T20:21:29.460Z,57.99
2022-11-14T20:23:58.450Z,57.82
2022-11-14T20:26:26.071Z,57.93
2022-11-14T20:28:54.492Z,57.88
2022-11-14T20:31:24.773Z,58.06
2022-11-14T20:33:53.496Z,58.10
2022-11-14T20:36:23.854Z,58.01
2022-11-14T20:38:52.042Z,57.73
2022-11-14T20:41:20.886Z,57.60
2022-11-14T20:43:48.308Z,57.74
2022-11-14T20:46:18.189Z,57.60
2022-11-14T20:48:46.701Z,57.67
2022-11-14T20:51:16.608Z,57.60
2022-11-14T20:53:44.733Z,57.44
2022-11-14T20:56:13.546Z,57.37
2022-11-14T20:58:42.948Z,57.41
2022-11-14T21:01:10.732Z,57.36
2022-11-14T21:03:38.580Z,57.37
2022-11-14T21:06:07.639Z,57.41
2022-11-14T21:08:35.959Z,57.34
2022-11-14T21:11:06.555Z,57.26
2022-11-14T21:13:54.875Z,56.95
2022-11-14T21:16:27.370Z,57.12
2022-11-14T21:18:55.573Z,57.08
2022-11-14T21:21:27.118Z,56.71
2022-11-14T21:23:55.619Z,56.59
2022-11-14T21:26:25.206Z,56.70
2022-11-14T21:28:55.571Z,56.17
2022-11-14T21:31:27.469Z,56.22
2022-11-14T21:33:56.904Z,56.34
2022-11-14T21:39:14.497Z,56.29
2022-11-14T21:41:42.909Z,56.45
2022-11-14T21:44:13.165Z,56.49
2022-11-14T21:46:42.171Z,56.57
2022-11-14T21:49:09.900Z,56.63
2022-11-14T21:51:36.842Z,56.72
2022-11-14T21:54:06.161Z,56.82
2022-11-14T21:56:35.811Z,56.82
2022-11-14T21:59:14.261Z,57.07
2022-11-14T22:02:03.830Z,57.04
2022-11-14T22:04:31.803Z,57.54
2022-11-14T22:06:59.532Z,57.69
2022-11-14T22:09:27.946Z,57.58
2022-11-14T22:11:55.485Z,57.70
2022-11-14T22:14:22.615Z,57.86
2022-11-14T22:16:51.206Z,57.97
2022-11-14T22:19:18.903Z,58.03
2022-11-14T22:21:46.098Z,58.00
2022-11-14T22:24:13.029Z,57.62
2022-11-14T22:26:41.225Z,57.53
2022-11-14T22:29:09.141Z,57.42
2022-11-14T22:31:37.998Z,57.17
2022-11-14T22:34:06.723Z,56.87
2022-11-14T22:36:33.810Z,57.06
2022-11-14T22:39:01.075Z,56.99
2022-11-14T22:41:33.028Z,56.73
2022-11-14T22:44:01.430Z,56.85
2022-11-14T22:46:29.192Z,56.70
2022-11-14T22:48:56.520Z,56.58
2022-11-14T22:51:27.241Z,56.80
2022-11-14T22:53:57.199Z,56.38
2022-11-14T22:56:27.421Z,56.18
2022-11-14T22:58:55.127Z,56.17
2022-11-14T23:01:24.421Z,56.31
2022-11-14T23:03:54.966Z,56.57
2022-11-14T23:06:24.368Z,56.64
2022-11-14T23:08:52.157Z,56.71
2022-11-14T23:11:22.338Z,56.89
2022-11-14T23:13:51.974Z,56.80
2022-11-14T23:16:22.573Z,56.70
2022-11-14T23:18:50.920Z,56.75
2022-11-14T23:21:20.931Z,57.10
2022-11-14T23:23:54.529Z,57.17
2022-11-14T23:26:22.499Z,57.21
2022-11-14T23:28:49.926Z,57.34
2022-11-14T23:31:20.527Z,57.24
2022-11-14T23:33:48.818Z,57.13
2022-11-14T23:36:16.330Z,57.12
2022-11-14T23:38:43.486Z,57.11
2022-11-14T23:41:17.415Z,57.29
2022-11-14T23:43:45.142Z,57.44
2022-11-14T23:46:13.154Z,57.32
2022-11-14T23:48:40.674Z,57.18
2022-11-14T23:51:08.091Z,57.18
2022-11-14T23:53:35.070Z,57.27
2022-11-14T23:56:02.555Z,57.48
2022-11-14T23:58:31.014Z,57.54
